sensor_id;sensor_type;location;lat;lon;timestamp;temperature;humidity
10826;DHT22;5466;55.898;14.094;2023-10-08T00:00:25;2.30;99.90
10826;DHT22;5466;55.898;14.094;2023-10-08T00:02:47;2.30;99.90
10826;DHT22;5466;55.898;14.094;2023-10-08T00:04:48;2.30;99.90
10826;DHT22;5466;55.898;14.094;2023-10-08T00:06:51;2.30;99.90
10826;DHT22;5466;55.898;14.094;2023-10-08T00:08:53;2.40;99.90
10826;DHT22;5466;55.898;14.094;2023-10-08T00:11:00;2.40;99.90
10826;DHT22;5466;55.898;14.094;2023-10-08T00:13:08;2.40;99.90
10826;DHT22;5466;55.898;14.094;2023-10-08T00:15:09;2.30;99.90
10826;DHT22;5466;55.898;14.094;2023-10-08T00:17:13;2.30;99.90
10826;DHT22;5466;55.898;14.094;2023-10-08T00:19:14;2.50;99.90
10826;DHT22;5466;55.898;14.094;2023-10-08T00:21:16;2.60;99.90
10826;DHT22;5466;55.898;14.094;2023-10-08T00:23:16;2.70;99.90
10826;DHT22;5466;55.898;14.094;2023-10-08T00:25:17;2.80;99.90
10826;DHT22;5466;55.898;14.094;2023-10-08T00:27:18;2.80;99.90
10826;DHT22;5466;55.898;14.094;2023-10-08T00:29:22;2.80;99.90
10826;DHT22;5466;55.898;14.094;2023-10-08T00:31:23;2.90;99.90
10826;DHT22;5466;55.898;14.094;2023-10-08T00:33:31;2.90;99.90
10826;DHT22;5466;55.898;14.094;2023-10-08T00:35:40;2.80;99.90
10826;DHT22;5466;55.898;14.094;2023-10-08T00:37:41;2.80;99.90
10826;DHT22;5466;55.898;14.094;2023-10-08T00:39:42;2.90;99.90
10826;DHT22;5466;55.898;14.094;2023-10-08T00:41:44;3.00;99.90
10826;DHT22;5466;55.898;14.094;2023-10-08T00:43:45;3.00;99.90
10826;DHT22;5466;55.898;14.094;2023-10-08T00:45:46;3.10;99.90
10826;DHT22;5466;55.898;14.094;2023-10-08T00:47:50;3.10;99.90
10826;DHT22;5466;55.898;14.094;2023-10-08T00:49:55;3.00;99.90
10826;DHT22;5466;55.898;14.094;2023-10-08T00:52:06;3.10;99.90
10826;DHT22;5466;55.898;14.094;2023-10-08T00:54:09;3.10;99.90
10826;DHT22;5466;55.898;14.094;2023-10-08T00:56:10;3.00;99.90
10826;DHT22;5466;55.898;14.094;2023-10-08T00:58:14;3.00;99.90
10826;DHT22;5466;55.898;14.094;2023-10-08T01:00:27;3.00;99.90
10826;DHT22;5466;55.898;14.094;2023-10-08T01:02:39;3.00;99.90
10826;DHT22;5466;55.898;14.094;2023-10-08T01:04:46;3.10;99.90
10826;DHT22;5466;55.898;14.094;2023-10-08T01:06:47;3.10;99.90
10826;DHT22;5466;55.898;14.094;2023-10-08T01:08:49;3.10;99.90
10826;DHT22;5466;55.898;14.094;2023-10-08T01:10:54;3.00;99.90
10826;DHT22;5466;55.898;14.094;2023-10-08T01:13:01;3.00;99.90
10826;DHT22;5466;55.898;14.094;2023-10-08T01:15:02;3.00;99.90
10826;DHT22;5466;55.898;14.094;2023-10-08T01:17:26;3.10;99.90
10826;DHT22;5466;55.898;14.094;2023-10-08T01:19:28;3.10;99.90
10826;DHT22;5466;55.898;14.094;2023-10-08T01:21:29;3.00;99.90
10826;DHT22;5466;55.898;14.094;2023-10-08T01:23:34;3.10;99.90
10826;DHT22;5466;55.898;14.094;2023-10-08T01:25:35;3.00;99.90
10826;DHT22;5466;55.898;14.094;2023-10-08T01:27:36;3.00;99.90
10826;DHT22;5466;55.898;14.094;2023-10-08T01:29:39;2.90;99.90
10826;DHT22;5466;55.898;14.094;2023-10-08T01:31:40;2.80;99.90
10826;DHT22;5466;55.898;14.094;2023-10-08T01:33:40;2.80;99.90
10826;DHT22;5466;55.898;14.094;2023-10-08T01:35:50;2.70;99.90
10826;DHT22;5466;55.898;14.094;2023-10-08T01:37:51;2.60;99.90
10826;DHT22;5466;55.898;14.094;2023-10-08T01:39:53;2.60;99.90
10826;DHT22;5466;55.898;14.094;2023-10-08T01:41:53;2.50;99.90
10826;DHT22;5466;55.898;14.094;2023-10-08T01:43:54;2.40;99.90
10826;DHT22;5466;55.898;14.094;2023-10-08T01:45:54;2.30;99.90
10826;DHT22;5466;55.898;14.094;2023-10-08T01:47:55;2.30;99.90
10826;DHT22;5466;55.898;14.094;2023-10-08T01:49:56;2.20;99.90
10826;DHT22;5466;55.898;14.094;2023-10-08T01:52:06;2.10;99.90
10826;DHT22;5466;55.898;14.094;2023-10-08T01:54:14;2.10;99.90
10826;DHT22;5466;55.898;14.094;2023-10-08T01:56:15;2.10;99.90
10826;DHT22;5466;55.898;14.094;2023-10-08T01:58:16;2.10;99.90
10826;DHT22;5466;55.898;14.094;2023-10-08T02:00:18;2.10;99.90
10826;DHT22;5466;55.898;14.094;2023-10-08T02:02:26;2.10;99.90
10826;DHT22;5466;55.898;14.094;2023-10-08T02:04:27;2.10;99.90
10826;DHT22;5466;55.898;14.094;2023-10-08T02:06:28;2.10;99.90
10826;DHT22;5466;55.898;14.094;2023-10-08T02:08:31;2.20;99.90
10826;DHT22;5466;55.898;14.094;2023-10-08T02:10:32;2.40;99.90
10826;DHT22;5466;55.898;14.094;2023-10-08T02:12:33;2.50;99.90
10826;DHT22;5466;55.898;14.094;2023-10-08T02:14:35;2.60;99.90
10826;DHT22;5466;55.898;14.094;2023-10-08T02:16:36;2.70;99.90
10826;DHT22;5466;55.898;14.094;2023-10-08T02:18:37;2.80;99.90
10826;DHT22;5466;55.898;14.094;2023-10-08T02:20:41;2.80;99.90
10826;DHT22;5466;55.898;14.094;2023-10-08T02:22:43;2.70;99.90
10826;DHT22;5466;55.898;14.094;2023-10-08T02:24:45;2.60;99.90
10826;DHT22;5466;55.898;14.094;2023-10-08T02:26:47;2.50;99.90
10826;DHT22;5466;55.898;14.094;2023-10-08T02:28:47;2.40;99.90
10826;DHT22;5466;55.898;14.094;2023-10-08T02:30:49;2.40;99.90
10826;DHT22;5466;55.898;14.094;2023-10-08T02:32:49;2.40;99.90
10826;DHT22;5466;55.898;14.094;2023-10-08T02:34:50;2.40;99.90
10826;DHT22;5466;55.898;14.094;2023-10-08T02:36:53;2.40;99.90
10826;DHT22;5466;55.898;14.094;2023-10-08T02:38:55;2.40;99.90
10826;DHT22;5466;55.898;14.094;2023-10-08T02:40:56;2.30;99.90
10826;DHT22;5466;55.898;14.094;2023-10-08T02:42:57;2.20;99.90
10826;DHT22;5466;55.898;14.094;2023-10-08T02:45:00;2.10;99.90
10826;DHT22;5466;55.898;14.094;2023-10-08T02:47:03;2.10;99.90
10826;DHT22;5466;55.898;14.094;2023-10-08T02:49:04;2.10;99.90
10826;DHT22;5466;55.898;14.094;2023-10-08T02:51:06;2.10;99.90
10826;DHT22;5466;55.898;14.094;2023-10-08T02:53:14;2.10;99.90
10826;DHT22;5466;55.898;14.094;2023-10-08T02:55:24;2.10;99.90
10826;DHT22;5466;55.898;14.094;2023-10-08T02:57:28;2.10;99.90
10826;DHT22;5466;55.898;14.094;2023-10-08T02:59:31;1.90;99.90
10826;DHT22;5466;55.898;14.094;2023-10-08T03:01:41;2.00;99.90
10826;DHT22;5466;55.898;14.094;2023-10-08T03:03:42;2.00;99.90
10826;DHT22;5466;55.898;14.094;2023-10-08T03:05:50;1.90;99.90
10826;DHT22;5466;55.898;14.094;2023-10-08T03:07:51;1.80;99.90
10826;DHT22;5466;55.898;14.094;2023-10-08T03:09:52;1.80;99.90
10826;DHT22;5466;55.898;14.094;2023-10-08T03:12:18;1.80;99.90
10826;DHT22;5466;55.898;14.094;2023-10-08T03:14:19;1.80;99.90
10826;DHT22;5466;55.898;14.094;2023-10-08T03:16:22;1.90;99.90
10826;DHT22;5466;55.898;14.094;2023-10-08T03:18:29;2.00;99.90
10826;DHT22;5466;55.898;14.094;2023-10-08T03:20:37;2.10;99.90
10826;DHT22;5466;55.898;14.094;2023-10-08T03:22:44;2.10;99.90
10826;DHT22;5466;55.898;14.094;2023-10-08T03:24:46;2.10;99.90
10826;DHT22;5466;55.898;14.094;2023-10-08T03:26:49;2.20;99.90
10826;DHT22;5466;55.898;14.094;2023-10-08T03:28:55;2.40;99.90
10826;DHT22;5466;55.898;14.094;2023-10-08T03:30:58;2.40;99.90
10826;DHT22;5466;55.898;14.094;2023-10-08T03:33:04;2.50;99.90
10826;DHT22;5466;55.898;14.094;2023-10-08T03:35:10;2.70;99.90
10826;DHT22;5466;55.898;14.094;2023-10-08T03:37:17;2.80;99.90
10826;DHT22;5466;55.898;14.094;2023-10-08T03:39:21;3.00;99.90
10826;DHT22;5466;55.898;14.094;2023-10-08T03:41:24;3.20;99.90
10826;DHT22;5466;55.898;14.094;2023-10-08T03:43:28;3.30;99.90
10826;DHT22;5466;55.898;14.094;2023-10-08T03:45:35;3.40;99.90
10826;DHT22;5466;55.898;14.094;2023-10-08T03:47:54;3.50;99.90
10826;DHT22;5466;55.898;14.094;2023-10-08T03:50:07;3.50;99.90
10826;DHT22;5466;55.898;14.094;2023-10-08T03:52:12;3.60;99.90
10826;DHT22;5466;55.898;14.094;2023-10-08T03:54:13;3.70;99.90
10826;DHT22;5466;55.898;14.094;2023-10-08T03:56:16;3.80;99.90
10826;DHT22;5466;55.898;14.094;2023-10-08T03:58:20;3.80;99.90
10826;DHT22;5466;55.898;14.094;2023-10-08T04:00:29;3.90;99.90
10826;DHT22;5466;55.898;14.094;2023-10-08T04:02:32;3.90;99.90
10826;DHT22;5466;55.898;14.094;2023-10-08T04:04:43;3.90;99.90
10826;DHT22;5466;55.898;14.094;2023-10-08T04:06:57;4.00;99.90
10826;DHT22;5466;55.898;14.094;2023-10-08T04:09:17;4.00;99.90
10826;DHT22;5466;55.898;14.094;2023-10-08T04:11:21;4.00;99.90
10826;DHT22;5466;55.898;14.094;2023-10-08T04:13:35;4.00;99.90
10826;DHT22;5466;55.898;14.094;2023-10-08T04:15:45;3.90;99.90
10826;DHT22;5466;55.898;14.094;2023-10-08T04:17:45;3.80;99.90
10826;DHT22;5466;55.898;14.094;2023-10-08T04:19:51;3.80;99.90
10826;DHT22;5466;55.898;14.094;2023-10-08T04:21:52;3.80;99.90
10826;DHT22;5466;55.898;14.094;2023-10-08T04:23:56;3.70;99.90
10826;DHT22;5466;55.898;14.094;2023-10-08T04:25:58;3.70;99.90
10826;DHT22;5466;55.898;14.094;2023-10-08T04:28:00;3.80;99.90
10826;DHT22;5466;55.898;14.094;2023-10-08T04:30:01;3.70;99.90
10826;DHT22;5466;55.898;14.094;2023-10-08T04:32:01;3.70;99.90
10826;DHT22;5466;55.898;14.094;2023-10-08T04:34:07;3.60;99.90
10826;DHT22;5466;55.898;14.094;2023-10-08T04:36:17;3.40;99.90
10826;DHT22;5466;55.898;14.094;2023-10-08T04:38:20;3.20;99.90
10826;DHT22;5466;55.898;14.094;2023-10-08T04:40:22;3.10;99.90
10826;DHT22;5466;55.898;14.094;2023-10-08T04:42:24;3.10;99.90
10826;DHT22;5466;55.898;14.094;2023-10-08T04:44:26;3.10;99.90
10826;DHT22;5466;55.898;14.094;2023-10-08T04:46:26;3.00;99.90
10826;DHT22;5466;55.898;14.094;2023-10-08T04:48:39;3.00;99.90
10826;DHT22;5466;55.898;14.094;2023-10-08T04:50:43;2.90;99.90
10826;DHT22;5466;55.898;14.094;2023-10-08T04:52:44;2.80;99.90
10826;DHT22;5466;55.898;14.094;2023-10-08T04:54:58;2.80;99.90
10826;DHT22;5466;55.898;14.094;2023-10-08T04:57:08;2.70;99.90
10826;DHT22;5466;55.898;14.094;2023-10-08T04:59:16;2.60;99.90
10826;DHT22;5466;55.898;14.094;2023-10-08T05:01:21;2.60;99.90
10826;DHT22;5466;55.898;14.094;2023-10-08T05:03:28;2.60;99.90
10826;DHT22;5466;55.898;14.094;2023-10-08T05:05:44;2.60;99.90
10826;DHT22;5466;55.898;14.094;2023-10-08T05:08:09;2.70;99.90
10826;DHT22;5466;55.898;14.094;2023-10-08T05:10:33;2.80;99.90
10826;DHT22;5466;55.898;14.094;2023-10-08T05:12:46;2.90;99.90
10826;DHT22;5466;55.898;14.094;2023-10-08T05:15:05;2.90;99.90
10826;DHT22;5466;55.898;14.094;2023-10-08T05:17:15;2.90;99.90
10826;DHT22;5466;55.898;14.094;2023-10-08T05:19:18;2.90;99.90
10826;DHT22;5466;55.898;14.094;2023-10-08T05:21:45;2.80;99.90
10826;DHT22;5466;55.898;14.094;2023-10-08T05:24:02;2.80;99.90
10826;DHT22;5466;55.898;14.094;2023-10-08T05:26:14;2.80;99.90
10826;DHT22;5466;55.898;14.094;2023-10-08T05:28:37;2.70;99.90
10826;DHT22;5466;55.898;14.094;2023-10-08T05:31:11;2.60;99.90
10826;DHT22;5466;55.898;14.094;2023-10-08T05:33:22;2.50;99.90
10826;DHT22;5466;55.898;14.094;2023-10-08T05:35:25;2.50;99.90
10826;DHT22;5466;55.898;14.094;2023-10-08T05:37:41;2.50;99.90
10826;DHT22;5466;55.898;14.094;2023-10-08T05:39:42;2.50;99.90
10826;DHT22;5466;55.898;14.094;2023-10-08T05:41:47;2.50;99.90
10826;DHT22;5466;55.898;14.094;2023-10-08T05:44:06;2.50;99.90
10826;DHT22;5466;55.898;14.094;2023-10-08T05:46:36;2.40;99.90
10826;DHT22;5466;55.898;14.094;2023-10-08T05:48:40;2.50;99.90
10826;DHT22;5466;55.898;14.094;2023-10-08T05:50:45;2.50;99.90
10826;DHT22;5466;55.898;14.094;2023-10-08T05:53:13;2.50;99.90
10826;DHT22;5466;55.898;14.094;2023-10-08T05:55:31;2.40;99.90
10826;DHT22;5466;55.898;14.094;2023-10-08T05:57:36;2.40;99.90
10826;DHT22;5466;55.898;14.094;2023-10-08T05:59:46;2.50;99.90
10826;DHT22;5466;55.898;14.094;2023-10-08T06:01:56;2.50;99.90
10826;DHT22;5466;55.898;14.094;2023-10-08T06:04:06;2.50;99.90
10826;DHT22;5466;55.898;14.094;2023-10-08T06:06:26;2.50;99.90
10826;DHT22;5466;55.898;14.094;2023-10-08T06:08:38;2.60;99.90
10826;DHT22;5466;55.898;14.094;2023-10-08T06:10:49;2.70;99.90
10826;DHT22;5466;55.898;14.094;2023-10-08T06:13:08;2.80;99.90
10826;DHT22;5466;55.898;14.094;2023-10-08T06:15:09;2.80;99.90
10826;DHT22;5466;55.898;14.094;2023-10-08T06:17:12;2.80;99.90
10826;DHT22;5466;55.898;14.094;2023-10-08T06:19:34;2.90;99.90
10826;DHT22;5466;55.898;14.094;2023-10-08T06:21:40;3.00;99.90
10826;DHT22;5466;55.898;14.094;2023-10-08T06:23:41;3.20;99.90
10826;DHT22;5466;55.898;14.094;2023-10-08T06:25:42;3.40;99.90
10826;DHT22;5466;55.898;14.094;2023-10-08T06:27:46;3.50;99.90
10826;DHT22;5466;55.898;14.094;2023-10-08T06:29:46;3.50;99.90
10826;DHT22;5466;55.898;14.094;2023-10-08T06:31:47;3.50;99.90
10826;DHT22;5466;55.898;14.094;2023-10-08T06:33:51;3.50;99.90
10826;DHT22;5466;55.898;14.094;2023-10-08T06:35:53;3.50;99.90
10826;DHT22;5466;55.898;14.094;2023-10-08T06:38:03;3.60;99.90
10826;DHT22;5466;55.898;14.094;2023-10-08T06:40:18;3.60;99.90
10826;DHT22;5466;55.898;14.094;2023-10-08T06:42:36;3.60;99.90
10826;DHT22;5466;55.898;14.094;2023-10-08T06:44:37;3.60;99.90
10826;DHT22;5466;55.898;14.094;2023-10-08T06:46:39;3.80;99.90
10826;DHT22;5466;55.898;14.094;2023-10-08T06:48:40;3.90;99.90
10826;DHT22;5466;55.898;14.094;2023-10-08T06:50:49;4.00;99.90
10826;DHT22;5466;55.898;14.094;2023-10-08T06:52:50;4.30;99.90
10826;DHT22;5466;55.898;14.094;2023-10-08T06:54:51;4.50;99.90
10826;DHT22;5466;55.898;14.094;2023-10-08T06:56:53;4.70;99.90
10826;DHT22;5466;55.898;14.094;2023-10-08T06:58:55;4.90;99.90
10826;DHT22;5466;55.898;14.094;2023-10-08T07:00:55;5.00;99.90
10826;DHT22;5466;55.898;14.094;2023-10-08T07:02:58;5.10;99.90
10826;DHT22;5466;55.898;14.094;2023-10-08T07:05:01;5.10;99.90
10826;DHT22;5466;55.898;14.094;2023-10-08T07:07:09;5.30;99.90
10826;DHT22;5466;55.898;14.094;2023-10-08T07:09:10;5.40;99.90
10826;DHT22;5466;55.898;14.094;2023-10-08T07:11:29;5.50;99.90
10826;DHT22;5466;55.898;14.094;2023-10-08T07:13:30;5.70;99.90
10826;DHT22;5466;55.898;14.094;2023-10-08T07:15:30;5.90;99.90
10826;DHT22;5466;55.898;14.094;2023-10-08T07:17:31;6.10;99.90
10826;DHT22;5466;55.898;14.094;2023-10-08T07:19:40;6.30;99.90
10826;DHT22;5466;55.898;14.094;2023-10-08T07:21:42;6.40;99.90
10826;DHT22;5466;55.898;14.094;2023-10-08T07:23:45;6.60;99.90
10826;DHT22;5466;55.898;14.094;2023-10-08T07:26:02;6.60;99.90
10826;DHT22;5466;55.898;14.094;2023-10-08T07:28:12;6.70;99.90
10826;DHT22;5466;55.898;14.094;2023-10-08T07:30:13;6.80;99.90
10826;DHT22;5466;55.898;14.094;2023-10-08T07:32:26;6.90;99.90
10826;DHT22;5466;55.898;14.094;2023-10-08T07:34:27;7.00;99.90
10826;DHT22;5466;55.898;14.094;2023-10-08T07:36:32;7.10;99.90
10826;DHT22;5466;55.898;14.094;2023-10-08T07:38:32;7.30;99.90
10826;DHT22;5466;55.898;14.094;2023-10-08T07:40:35;7.50;99.90
10826;DHT22;5466;55.898;14.094;2023-10-08T07:42:37;7.60;99.90
10826;DHT22;5466;55.898;14.094;2023-10-08T07:44:38;7.60;99.90
10826;DHT22;5466;55.898;14.094;2023-10-08T07:46:39;7.60;99.90
10826;DHT22;5466;55.898;14.094;2023-10-08T07:48:39;7.50;99.90
10826;DHT22;5466;55.898;14.094;2023-10-08T07:50:46;7.40;99.90
10826;DHT22;5466;55.898;14.094;2023-10-08T07:52:46;7.40;99.90
10826;DHT22;5466;55.898;14.094;2023-10-08T07:54:47;7.40;99.90
10826;DHT22;5466;55.898;14.094;2023-10-08T07:56:48;7.30;99.90
10826;DHT22;5466;55.898;14.094;2023-10-08T07:58:48;7.30;99.90
10826;DHT22;5466;55.898;14.094;2023-10-08T08:00:50;7.20;99.90
10826;DHT22;5466;55.898;14.094;2023-10-08T08:02:53;7.30;99.90
10826;DHT22;5466;55.898;14.094;2023-10-08T08:04:55;7.30;99.90
10826;DHT22;5466;55.898;14.094;2023-10-08T08:06:56;7.40;99.90
10826;DHT22;5466;55.898;14.094;2023-10-08T08:08:57;7.50;99.90
10826;DHT22;5466;55.898;14.094;2023-10-08T08:10:58;7.50;99.90
10826;DHT22;5466;55.898;14.094;2023-10-08T08:13:04;7.50;99.90
10826;DHT22;5466;55.898;14.094;2023-10-08T08:15:06;7.50;99.90
10826;DHT22;5466;55.898;14.094;2023-10-08T08:17:17;7.60;99.90
10826;DHT22;5466;55.898;14.094;2023-10-08T08:19:18;7.60;99.90
10826;DHT22;5466;55.898;14.094;2023-10-08T08:21:24;7.70;99.90
10826;DHT22;5466;55.898;14.094;2023-10-08T08:23:26;7.80;99.90
10826;DHT22;5466;55.898;14.094;2023-10-08T08:25:26;7.90;99.90
10826;DHT22;5466;55.898;14.094;2023-10-08T08:27:34;7.90;99.90
10826;DHT22;5466;55.898;14.094;2023-10-08T08:29:35;7.90;99.90
10826;DHT22;5466;55.898;14.094;2023-10-08T08:31:47;8.00;99.90
10826;DHT22;5466;55.898;14.094;2023-10-08T08:33:47;8.10;99.90
10826;DHT22;5466;55.898;14.094;2023-10-08T08:36:00;8.20;99.90
10826;DHT22;5466;55.898;14.094;2023-10-08T08:38:01;8.20;99.90
10826;DHT22;5466;55.898;14.094;2023-10-08T08:40:02;8.30;99.90
10826;DHT22;5466;55.898;14.094;2023-10-08T08:42:21;8.30;99.90
10826;DHT22;5466;55.898;14.094;2023-10-08T08:44:23;8.30;99.90
10826;DHT22;5466;55.898;14.094;2023-10-08T08:46:32;8.40;99.90
10826;DHT22;5466;55.898;14.094;2023-10-08T08:48:34;8.40;99.90
10826;DHT22;5466;55.898;14.094;2023-10-08T08:50:37;8.40;99.90
10826;DHT22;5466;55.898;14.094;2023-10-08T08:52:39;8.40;99.90
10826;DHT22;5466;55.898;14.094;2023-10-08T08:54:41;8.40;99.90
10826;DHT22;5466;55.898;14.094;2023-10-08T08:56:43;8.40;99.90
10826;DHT22;5466;55.898;14.094;2023-10-08T08:58:44;8.40;99.90
10826;DHT22;5466;55.898;14.094;2023-10-08T09:00:47;8.50;99.90
10826;DHT22;5466;55.898;14.094;2023-10-08T09:02:50;8.50;99.90
10826;DHT22;5466;55.898;14.094;2023-10-08T09:04:50;8.60;99.90
10826;DHT22;5466;55.898;14.094;2023-10-08T09:06:51;8.80;99.90
10826;DHT22;5466;55.898;14.094;2023-10-08T09:08:54;9.00;99.90
10826;DHT22;5466;55.898;14.094;2023-10-08T09:10:57;9.30;99.90
10826;DHT22;5466;55.898;14.094;2023-10-08T09:13:01;9.50;99.90
10826;DHT22;5466;55.898;14.094;2023-10-08T09:15:02;9.70;99.00
10826;DHT22;5466;55.898;14.094;2023-10-08T09:17:04;9.80;99.40
10826;DHT22;5466;55.898;14.094;2023-10-08T09:19:05;9.90;98.10
10826;DHT22;5466;55.898;14.094;2023-10-08T09:21:17;9.80;97.70
10826;DHT22;5466;55.898;14.094;2023-10-08T09:23:24;9.80;97.50
10826;DHT22;5466;55.898;14.094;2023-10-08T09:25:26;9.60;98.00
10826;DHT22;5466;55.898;14.094;2023-10-08T09:27:28;9.60;98.70
10826;DHT22;5466;55.898;14.094;2023-10-08T09:29:31;9.70;97.00
10826;DHT22;5466;55.898;14.094;2023-10-08T09:31:32;9.90;97.80
10826;DHT22;5466;55.898;14.094;2023-10-08T09:33:35;10.10;97.10
10826;DHT22;5466;55.898;14.094;2023-10-08T09:35:37;10.40;95.70
10826;DHT22;5466;55.898;14.094;2023-10-08T09:37:38;10.60;95.60
10826;DHT22;5466;55.898;14.094;2023-10-08T09:39:41;10.80;94.90
10826;DHT22;5466;55.898;14.094;2023-10-08T09:41:43;11.00;94.70
10826;DHT22;5466;55.898;14.094;2023-10-08T09:43:46;11.20;94.10
10826;DHT22;5466;55.898;14.094;2023-10-08T09:45:54;11.40;94.30
10826;DHT22;5466;55.898;14.094;2023-10-08T09:47:56;11.60;92.90
10826;DHT22;5466;55.898;14.094;2023-10-08T09:50:05;11.80;93.60
10826;DHT22;5466;55.898;14.094;2023-10-08T09:52:12;12.00;92.90
10826;DHT22;5466;55.898;14.094;2023-10-08T09:54:22;12.00;91.10
10826;DHT22;5466;55.898;14.094;2023-10-08T09:56:28;12.00;90.40
10826;DHT22;5466;55.898;14.094;2023-10-08T09:58:29;12.00;90.90
10826;DHT22;5466;55.898;14.094;2023-10-08T10:00:31;12.10;90.60
10826;DHT22;5466;55.898;14.094;2023-10-08T10:02:32;12.20;91.30
10826;DHT22;5466;55.898;14.094;2023-10-08T10:04:34;12.50;90.10
10826;DHT22;5466;55.898;14.094;2023-10-08T10:06:35;12.50;90.10
10826;DHT22;5466;55.898;14.094;2023-10-08T10:08:36;12.50;90.10
10826;DHT22;5466;55.898;14.094;2023-10-08T10:10:38;12.50;89.70
10826;DHT22;5466;55.898;14.094;2023-10-08T10:12:39;12.50;89.70
10826;DHT22;5466;55.898;14.094;2023-10-08T10:14:41;12.40;90.50
10826;DHT22;5466;55.898;14.094;2023-10-08T10:16:43;12.30;88.50
10826;DHT22;5466;55.898;14.094;2023-10-08T10:18:48;12.60;90.90
10826;DHT22;5466;55.898;14.094;2023-10-08T10:25:41;13.20;86.80
10826;DHT22;5466;55.898;14.094;2023-10-08T10:30:03;13.50;86.70
10826;DHT22;5466;55.898;14.094;2023-10-08T10:32:11;13.60;86.50
10826;DHT22;5466;55.898;14.094;2023-10-08T10:34:18;14.00;87.00
10826;DHT22;5466;55.898;14.094;2023-10-08T10:36:20;13.90;85.00
10826;DHT22;5466;55.898;14.094;2023-10-08T10:38:22;14.10;87.90
10826;DHT22;5466;55.898;14.094;2023-10-08T10:40:26;14.20;84.60
10826;DHT22;5466;55.898;14.094;2023-10-08T10:42:39;14.00;86.70
10826;DHT22;5466;55.898;14.094;2023-10-08T10:44:48;13.80;83.00
10826;DHT22;5466;55.898;14.094;2023-10-08T10:46:49;13.70;82.40
10826;DHT22;5466;55.898;14.094;2023-10-08T10:49:13;13.60;82.40
10826;DHT22;5466;55.898;14.094;2023-10-08T10:51:22;13.90;84.30
10826;DHT22;5466;55.898;14.094;2023-10-08T10:53:25;14.00;82.90
10826;DHT22;5466;55.898;14.094;2023-10-08T10:55:27;14.20;84.50
10826;DHT22;5466;55.898;14.094;2023-10-08T10:57:34;14.30;84.10
10826;DHT22;5466;55.898;14.094;2023-10-08T10:59:35;14.40;82.00
10826;DHT22;5466;55.898;14.094;2023-10-08T11:01:38;14.30;80.30
10826;DHT22;5466;55.898;14.094;2023-10-08T11:03:52;14.50;82.60
10826;DHT22;5466;55.898;14.094;2023-10-08T11:05:57;14.40;80.90
10826;DHT22;5466;55.898;14.094;2023-10-08T11:08:00;14.10;80.10
10826;DHT22;5466;55.898;14.094;2023-10-08T11:10:05;14.00;79.90
10826;DHT22;5466;55.898;14.094;2023-10-08T11:12:12;14.00;83.50
10826;DHT22;5466;55.898;14.094;2023-10-08T11:14:13;14.40;80.00
10826;DHT22;5466;55.898;14.094;2023-10-08T11:16:23;14.10;79.40
10826;DHT22;5466;55.898;14.094;2023-10-08T11:18:25;13.90;76.90
10826;DHT22;5466;55.898;14.094;2023-10-08T11:20:28;13.80;78.70
10826;DHT22;5466;55.898;14.094;2023-10-08T11:22:42;13.70;78.70
10826;DHT22;5466;55.898;14.094;2023-10-08T11:24:46;13.80;80.60
10826;DHT22;5466;55.898;14.094;2023-10-08T11:26:49;14.00;82.10
10826;DHT22;5466;55.898;14.094;2023-10-08T11:29:06;14.30;80.20
10826;DHT22;5466;55.898;14.094;2023-10-08T11:31:17;14.30;79.60
10826;DHT22;5466;55.898;14.094;2023-10-08T11:33:20;14.40;79.60
10826;DHT22;5466;55.898;14.094;2023-10-08T11:35:21;14.50;78.10
10826;DHT22;5466;55.898;14.094;2023-10-08T11:37:28;14.50;78.80
10826;DHT22;5466;55.898;14.094;2023-10-08T11:39:39;14.50;80.10
10826;DHT22;5466;55.898;14.094;2023-10-08T11:41:55;14.60;78.20
10826;DHT22;5466;55.898;14.094;2023-10-08T11:43:56;14.70;78.20
10826;DHT22;5466;55.898;14.094;2023-10-08T11:45:57;14.60;77.00
10826;DHT22;5466;55.898;14.094;2023-10-08T11:47:58;14.50;76.00
10826;DHT22;5466;55.898;14.094;2023-10-08T11:50:03;14.00;76.20
10826;DHT22;5466;55.898;14.094;2023-10-08T11:52:10;14.10;76.30
10826;DHT22;5466;55.898;14.094;2023-10-08T11:54:12;13.90;76.40
10826;DHT22;5466;55.898;14.094;2023-10-08T11:56:12;14.20;77.20
10826;DHT22;5466;55.898;14.094;2023-10-08T11:58:16;14.70;79.40
10826;DHT22;5466;55.898;14.094;2023-10-08T12:00:18;14.80;77.30
10826;DHT22;5466;55.898;14.094;2023-10-08T12:02:27;14.90;75.30
10826;DHT22;5466;55.898;14.094;2023-10-08T12:04:32;14.90;75.90
10826;DHT22;5466;55.898;14.094;2023-10-08T12:06:33;14.90;74.00
10826;DHT22;5466;55.898;14.094;2023-10-08T12:08:34;14.60;74.00
10826;DHT22;5466;55.898;14.094;2023-10-08T12:10:39;14.80;75.60
10826;DHT22;5466;55.898;14.094;2023-10-08T12:12:41;15.00;74.10
10826;DHT22;5466;55.898;14.094;2023-10-08T12:14:41;14.80;72.20
10826;DHT22;5466;55.898;14.094;2023-10-08T12:16:45;14.90;75.10
10826;DHT22;5466;55.898;14.094;2023-10-08T12:18:47;14.70;73.30
10826;DHT22;5466;55.898;14.094;2023-10-08T12:20:59;14.80;73.70
10826;DHT22;5466;55.898;14.094;2023-10-08T12:22:59;14.90;73.60
10826;DHT22;5466;55.898;14.094;2023-10-08T12:25:00;14.60;72.90
10826;DHT22;5466;55.898;14.094;2023-10-08T12:27:01;14.40;69.80
10826;DHT22;5466;55.898;14.094;2023-10-08T12:29:03;14.40;71.90
10826;DHT22;5466;55.898;14.094;2023-10-08T12:31:04;14.20;73.90
10826;DHT22;5466;55.898;14.094;2023-10-08T12:33:05;14.20;71.20
10826;DHT22;5466;55.898;14.094;2023-10-08T12:35:07;14.20;71.10
10826;DHT22;5466;55.898;14.094;2023-10-08T12:37:13;14.10;71.00
10826;DHT22;5466;55.898;14.094;2023-10-08T12:39:15;14.30;71.50
10826;DHT22;5466;55.898;14.094;2023-10-08T12:41:15;14.20;70.60
10826;DHT22;5466;55.898;14.094;2023-10-08T12:43:23;14.20;69.60
10826;DHT22;5466;55.898;14.094;2023-10-08T12:45:27;14.20;70.00
10826;DHT22;5466;55.898;14.094;2023-10-08T12:47:28;14.30;68.90
10826;DHT22;5466;55.898;14.094;2023-10-08T12:49:30;14.10;68.50
10826;DHT22;5466;55.898;14.094;2023-10-08T12:51:34;14.20;68.10
10826;DHT22;5466;55.898;14.094;2023-10-08T12:53:35;14.30;71.00
10826;DHT22;5466;55.898;14.094;2023-10-08T12:55:39;14.20;69.20
10826;DHT22;5466;55.898;14.094;2023-10-08T12:57:44;14.30;70.10
10826;DHT22;5466;55.898;14.094;2023-10-08T12:59:49;14.50;70.60
10826;DHT22;5466;55.898;14.094;2023-10-08T13:01:52;14.50;68.40
10826;DHT22;5466;55.898;14.094;2023-10-08T13:03:56;14.10;68.70
10826;DHT22;5466;55.898;14.094;2023-10-08T13:06:09;13.90;68.60
10826;DHT22;5466;55.898;14.094;2023-10-08T13:08:15;13.80;69.30
10826;DHT22;5466;55.898;14.094;2023-10-08T13:10:16;13.60;68.90
10826;DHT22;5466;55.898;14.094;2023-10-08T13:12:17;13.60;71.40
10826;DHT22;5466;55.898;14.094;2023-10-08T13:14:17;13.50;70.80
10826;DHT22;5466;55.898;14.094;2023-10-08T13:16:19;13.40;72.70
10826;DHT22;5466;55.898;14.094;2023-10-08T13:18:25;13.30;73.20
10826;DHT22;5466;55.898;14.094;2023-10-08T13:20:29;13.30;74.50
10826;DHT22;5466;55.898;14.094;2023-10-08T13:22:33;13.40;71.40
10826;DHT22;5466;55.898;14.094;2023-10-08T13:24:34;13.10;68.50
10826;DHT22;5466;55.898;14.094;2023-10-08T13:26:36;13.00;68.50